SCSE/LSC METAR and TAF weather

Enter ICAO airport designator
Station Type Date Time Source
SCSE METAR 2019/05/26 01:00 UTC NOAA

SCSE 260100Z AUTO VRB02KT 9999 OVC041/// 14/09 Q1016


Station Type Date Time Source
SCSE Decoded METAR 2019/05/26 01:00 UTC NOAA

La Serena, Chile (SCSE) 29-54S 071-12W
May 25, 2019 - 09:00 PM EDT / 2019.05.26 0100 UTC
Wind: Variable at 2 MPH (2 KT):0
Visibility: greater than 7 mile(s):0
Sky conditions: overcast
Temperature: 57 F (14 C)
Dew Point: 48 F (9 C)
Relative Humidity: 71%
Pressure (altimeter): 30.00 in. Hg (1016 hPa)
ob: SCSE 260100Z AUTO VRB02KT 9999 OVC041/// 14/09 Q1016
cycle: 1

Station Type Date Time Source
SCSE TAF 2019/05/26 00:00 UTC NOAA

TAF SCSE 252209Z 2600/2624 29010KT 9999 SCT025 BKN180 TX16/2618Z TN11/2611Z
BECMG 2604/2606 12005KT BKN010
TEMPO 2609/2613 3000 BR SCT006 BKN012
BECMG 2620/2622 25005KT BKN150

Example: see airport list